sensor_id;sensor_type;location;lat;lon;timestamp;pressure;altitude;pressure_sealevel;temperature;humidity
24336;BME280;33098;52.400;16.880;2023-04-23T00:00:05;100206.48;;;12.86;54.49
24336;BME280;33098;52.400;16.880;2023-04-23T00:03:06;100203.25;;;12.90;54.51
24336;BME280;33098;52.400;16.880;2023-04-23T00:05:40;100198.67;;;12.82;54.35
24336;BME280;33098;52.400;16.880;2023-04-23T00:08:10;100193.67;;;12.81;54.51
24336;BME280;33098;52.400;16.880;2023-04-23T00:10:37;100190.49;;;12.76;54.42
24336;BME280;33098;52.400;16.880;2023-04-23T00:13:04;100184.90;;;12.73;54.62
24336;BME280;33098;52.400;16.880;2023-04-23T00:15:31;100187.24;;;12.73;54.67
24336;BME280;33098;52.400;16.880;2023-04-23T00:17:57;100185.98;;;12.73;54.60
24336;BME280;33098;52.400;16.880;2023-04-23T00:20:24;100179.23;;;12.71;54.59
24336;BME280;33098;52.400;16.880;2023-04-23T00:22:50;100177.42;;;12.71;54.78
24336;BME280;33098;52.400;16.880;2023-04-23T00:25:18;100173.64;;;12.68;54.72
24336;BME280;33098;52.400;16.880;2023-04-23T00:27:45;100171.52;;;12.66;54.84
24336;BME280;33098;52.400;16.880;2023-04-23T00:30:13;100172.84;;;12.65;54.96
24336;BME280;33098;52.400;16.880;2023-04-23T00:32:40;100167.59;;;12.62;55.01
24336;BME280;33098;52.400;16.880;2023-04-23T00:35:07;100163.80;;;12.54;54.98
24336;BME280;33098;52.400;16.880;2023-04-23T00:37:34;100161.20;;;12.46;54.98
24336;BME280;33098;52.400;16.880;2023-04-23T00:40:01;100161.88;;;12.43;55.21
24336;BME280;33098;52.400;16.880;2023-04-23T00:42:28;100154.63;;;12.38;55.30
24336;BME280;33098;52.400;16.880;2023-04-23T00:45:00;100151.52;;;12.37;55.33
24336;BME280;33098;52.400;16.880;2023-04-23T00:47:28;100148.61;;;12.42;55.44
24336;BME280;33098;52.400;16.880;2023-04-23T00:49:56;100149.23;;;12.50;55.44
24336;BME280;33098;52.400;16.880;2023-04-23T00:52:25;100144.59;;;12.54;55.08
24336;BME280;33098;52.400;16.880;2023-04-23T00:54:51;100143.20;;;12.56;55.13
24336;BME280;33098;52.400;16.880;2023-04-23T00:57:18;100140.77;;;12.59;54.76
24336;BME280;33098;52.400;16.880;2023-04-23T00:59:45;100140.38;;;12.64;54.73
24336;BME280;33098;52.400;16.880;2023-04-23T01:02:12;100139.13;;;12.71;54.54
24336;BME280;33098;52.400;16.880;2023-04-23T01:04:41;100138.20;;;12.76;54.42
24336;BME280;33098;52.400;16.880;2023-04-23T01:07:10;100135.56;;;12.79;54.25
24336;BME280;33098;52.400;16.880;2023-04-23T01:09:38;100133.99;;;12.84;54.00
24336;BME280;33098;52.400;16.880;2023-04-23T01:12:05;100137.35;;;12.83;53.93
24336;BME280;33098;52.400;16.880;2023-04-23T01:14:32;100135.77;;;12.86;53.84
24336;BME280;33098;52.400;16.880;2023-04-23T01:17:00;100140.63;;;12.90;53.67
24336;BME280;33098;52.400;16.880;2023-04-23T01:19:28;100140.38;;;12.88;53.64
24336;BME280;33098;52.400;16.880;2023-04-23T01:21:59;100138.13;;;12.86;53.46
24336;BME280;33098;52.400;16.880;2023-04-23T01:24:30;100135.14;;;12.87;53.66
24336;BME280;33098;52.400;16.880;2023-04-23T01:26:59;100139.89;;;12.90;53.48
24336;BME280;33098;52.400;16.880;2023-04-23T01:29:27;100136.23;;;12.89;53.56
24336;BME280;33098;52.400;16.880;2023-04-23T01:31:56;100131.61;;;12.83;53.47
24336;BME280;33098;52.400;16.880;2023-04-23T01:34:24;100128.70;;;12.79;53.63
24336;BME280;33098;52.400;16.880;2023-04-23T01:36:51;100126.02;;;12.80;53.62
24336;BME280;33098;52.400;16.880;2023-04-23T01:39:21;100126.52;;;12.82;53.48
24336;BME280;33098;52.400;16.880;2023-04-23T01:41:48;100123.55;;;12.76;53.47
24336;BME280;33098;52.400;16.880;2023-04-23T01:44:15;100118.74;;;12.72;53.43
24336;BME280;33098;52.400;16.880;2023-04-23T01:46:42;100119.27;;;12.74;53.55
24336;BME280;33098;52.400;16.880;2023-04-23T01:49:09;100119.30;;;12.80;53.53
24336;BME280;33098;52.400;16.880;2023-04-23T01:51:38;100116.43;;;12.80;53.49
24336;BME280;33098;52.400;16.880;2023-04-23T01:54:07;100117.73;;;12.76;53.30
24336;BME280;33098;52.400;16.880;2023-04-23T01:56:34;100113.77;;;12.74;53.43
24336;BME280;33098;52.400;16.880;2023-04-23T01:59:01;100119.20;;;12.67;53.39
24336;BME280;33098;52.400;16.880;2023-04-23T02:01:44;100115.14;;;12.59;53.42
24336;BME280;33098;52.400;16.880;2023-04-23T02:04:16;100113.64;;;12.60;53.54
24336;BME280;33098;52.400;16.880;2023-04-23T02:06:46;100109.85;;;12.61;53.53
24336;BME280;33098;52.400;16.880;2023-04-23T02:09:14;100112.34;;;12.65;53.51
24336;BME280;33098;52.400;16.880;2023-04-23T02:11:44;100112.02;;;12.64;53.43
24336;BME280;33098;52.400;16.880;2023-04-23T02:14:11;100113.81;;;12.64;53.50
24336;BME280;33098;52.400;16.880;2023-04-23T02:16:38;100112.94;;;12.64;53.32
24336;BME280;33098;52.400;16.880;2023-04-23T02:19:05;100110.81;;;12.64;53.29
24336;BME280;33098;52.400;16.880;2023-04-23T02:21:33;100107.45;;;12.59;53.34
24336;BME280;33098;52.400;16.880;2023-04-23T02:24:00;100104.20;;;12.58;53.43
24336;BME280;33098;52.400;16.880;2023-04-23T02:26:30;100109.18;;;12.56;53.25
24336;BME280;33098;52.400;16.880;2023-04-23T02:28:57;100104.24;;;12.54;53.43
24336;BME280;33098;52.400;16.880;2023-04-23T02:31:25;100106.14;;;12.54;53.20
24336;BME280;33098;52.400;16.880;2023-04-23T02:33:51;100104.25;;;12.54;53.26
24336;BME280;33098;52.400;16.880;2023-04-23T02:36:18;100105.65;;;12.50;53.34
24336;BME280;33098;52.400;16.880;2023-04-23T02:38:45;100104.02;;;12.48;53.41
24336;BME280;33098;52.400;16.880;2023-04-23T02:41:16;100106.59;;;12.42;53.31
24336;BME280;33098;52.400;16.880;2023-04-23T02:43:46;100105.29;;;12.27;53.36
24336;BME280;33098;52.400;16.880;2023-04-23T02:46:12;100109.14;;;12.20;53.68
24336;BME280;33098;52.400;16.880;2023-04-23T02:48:40;100107.67;;;12.14;53.70
24336;BME280;33098;52.400;16.880;2023-04-23T02:51:10;100105.15;;;12.13;53.84
24336;BME280;33098;52.400;16.880;2023-04-23T02:53:37;100109.17;;;12.14;54.06
24336;BME280;33098;52.400;16.880;2023-04-23T02:56:07;100105.13;;;12.11;54.04
24336;BME280;33098;52.400;16.880;2023-04-23T02:58:34;100106.89;;;12.11;54.14
24336;BME280;33098;52.400;16.880;2023-04-23T03:01:04;100105.16;;;12.10;54.17
24336;BME280;33098;52.400;16.880;2023-04-23T03:03:31;100107.80;;;12.03;54.14
24336;BME280;33098;52.400;16.880;2023-04-23T03:06:00;100107.05;;;11.89;54.23
24336;BME280;33098;52.400;16.880;2023-04-23T03:08:27;100102.85;;;11.78;54.43
24336;BME280;33098;52.400;16.880;2023-04-23T03:11:04;100099.73;;;11.69;54.64
24336;BME280;33098;52.400;16.880;2023-04-23T03:13:37;100095.23;;;11.64;54.78
24336;BME280;33098;52.400;16.880;2023-04-23T03:16:14;100095.00;;;11.52;54.96
24336;BME280;33098;52.400;16.880;2023-04-23T03:18:45;100091.55;;;11.43;55.27
24336;BME280;33098;52.400;16.880;2023-04-23T03:21:12;100089.91;;;11.41;55.55
24336;BME280;33098;52.400;16.880;2023-04-23T03:23:39;100089.25;;;11.35;55.61
24336;BME280;33098;52.400;16.880;2023-04-23T03:26:05;100089.07;;;11.33;55.79
24336;BME280;33098;52.400;16.880;2023-04-23T03:28:32;100088.97;;;11.30;55.89
24336;BME280;33098;52.400;16.880;2023-04-23T03:30:59;100087.58;;;11.23;56.15
24336;BME280;33098;52.400;16.880;2023-04-23T03:33:25;100091.02;;;11.16;56.20
24336;BME280;33098;52.400;16.880;2023-04-23T03:35:52;100088.25;;;11.11;56.42
24336;BME280;33098;52.400;16.880;2023-04-23T03:38:21;100085.56;;;11.12;56.56
24336;BME280;33098;52.400;16.880;2023-04-23T03:40:49;100085.77;;;11.07;56.71
24336;BME280;33098;52.400;16.880;2023-04-23T03:43:16;100089.91;;;11.05;56.82
24336;BME280;33098;52.400;16.880;2023-04-23T03:46:01;100087.05;;;10.99;56.89
24336;BME280;33098;52.400;16.880;2023-04-23T03:48:28;100090.00;;;10.89;56.94
24336;BME280;33098;52.400;16.880;2023-04-23T03:50:56;100089.96;;;10.81;57.04
24336;BME280;33098;52.400;16.880;2023-04-23T03:53:33;100089.85;;;10.76;57.44
24336;BME280;33098;52.400;16.880;2023-04-23T03:56:32;100091.30;;;10.69;57.55
24336;BME280;33098;52.400;16.880;2023-04-23T03:59:10;100093.56;;;10.63;57.71
24336;BME280;33098;52.400;16.880;2023-04-23T04:01:37;100088.85;;;10.54;57.77
24336;BME280;33098;52.400;16.880;2023-04-23T04:04:03;100091.45;;;10.53;57.95
24336;BME280;33098;52.400;16.880;2023-04-23T04:06:32;100090.96;;;10.56;58.10
24336;BME280;33098;52.400;16.880;2023-04-23T04:08:58;100086.19;;;10.58;58.17
24336;BME280;33098;52.400;16.880;2023-04-23T04:11:25;100088.88;;;10.58;58.22
24336;BME280;33098;52.400;16.880;2023-04-23T04:13:52;100090.62;;;10.58;58.38
24336;BME280;33098;52.400;16.880;2023-04-23T04:16:18;100089.67;;;10.55;58.48
24336;BME280;33098;52.400;16.880;2023-04-23T04:18:45;100088.36;;;10.53;58.63
24336;BME280;33098;52.400;16.880;2023-04-23T04:21:11;100087.70;;;10.51;58.86
24336;BME280;33098;52.400;16.880;2023-04-23T04:23:38;100092.52;;;10.46;58.95
24336;BME280;33098;52.400;16.880;2023-04-23T04:26:05;100090.65;;;10.48;59.18
24336;BME280;33098;52.400;16.880;2023-04-23T04:28:33;100089.56;;;10.52;59.51
24336;BME280;33098;52.400;16.880;2023-04-23T04:31:02;100088.07;;;10.59;59.50
24336;BME280;33098;52.400;16.880;2023-04-23T04:33:31;100089.40;;;10.60;59.46
24336;BME280;33098;52.400;16.880;2023-04-23T04:35:58;100091.37;;;10.66;59.64
24336;BME280;33098;52.400;16.880;2023-04-23T04:38:26;100085.60;;;10.78;59.61
24336;BME280;33098;52.400;16.880;2023-04-23T04:40:55;100086.65;;;10.82;59.44
24336;BME280;33098;52.400;16.880;2023-04-23T04:43:25;100083.02;;;10.91;59.55
24336;BME280;33098;52.400;16.880;2023-04-23T04:45:52;100084.55;;;11.01;59.31
24336;BME280;33098;52.400;16.880;2023-04-23T04:48:19;100084.67;;;11.12;59.21
24336;BME280;33098;52.400;16.880;2023-04-23T04:50:46;100083.12;;;11.23;59.06
24336;BME280;33098;52.400;16.880;2023-04-23T04:53:12;100079.84;;;11.35;58.96
24336;BME280;33098;52.400;16.880;2023-04-23T04:55:39;100076.92;;;11.42;58.93
24336;BME280;33098;52.400;16.880;2023-04-23T04:58:06;100075.38;;;11.45;58.62
24336;BME280;33098;52.400;16.880;2023-04-23T05:00:33;100074.63;;;11.52;58.59
24336;BME280;33098;52.400;16.880;2023-04-23T05:03:01;100074.77;;;11.58;58.56
24336;BME280;33098;52.400;16.880;2023-04-23T05:05:28;100072.61;;;11.68;58.42
24336;BME280;33098;52.400;16.880;2023-04-23T05:07:55;100076.78;;;11.74;58.20
24336;BME280;33098;52.400;16.880;2023-04-23T05:10:24;100072.45;;;11.80;58.25
24336;BME280;33098;52.400;16.880;2023-04-23T05:12:51;100068.86;;;11.88;58.17
24336;BME280;33098;52.400;16.880;2023-04-23T05:15:19;100068.06;;;11.95;58.05
24336;BME280;33098;52.400;16.880;2023-04-23T05:17:45;100067.05;;;12.01;57.95
24336;BME280;33098;52.400;16.880;2023-04-23T05:20:12;100064.38;;;12.07;57.80
24336;BME280;33098;52.400;16.880;2023-04-23T05:22:40;100059.17;;;12.15;57.81
24336;BME280;33098;52.400;16.880;2023-04-23T05:25:09;100062.64;;;12.24;57.96
24336;BME280;33098;52.400;16.880;2023-04-23T05:27:37;100059.44;;;12.30;57.58
24336;BME280;33098;52.400;16.880;2023-04-23T05:30:07;100058.14;;;12.33;57.58
24336;BME280;33098;52.400;16.880;2023-04-23T05:32:35;100062.66;;;12.38;57.54
24336;BME280;33098;52.400;16.880;2023-04-23T05:35:02;100061.84;;;12.45;57.46
24336;BME280;33098;52.400;16.880;2023-04-23T05:37:29;100065.45;;;12.53;57.53
24336;BME280;33098;52.400;16.880;2023-04-23T05:39:56;100068.52;;;12.61;57.42
24336;BME280;33098;52.400;16.880;2023-04-23T05:42:23;100063.45;;;12.69;57.39
24336;BME280;33098;52.400;16.880;2023-04-23T05:44:50;100064.02;;;12.77;57.22
24336;BME280;33098;52.400;16.880;2023-04-23T05:47:17;100065.73;;;12.83;57.23
24336;BME280;33098;52.400;16.880;2023-04-23T05:49:44;100066.69;;;12.90;57.22
24336;BME280;33098;52.400;16.880;2023-04-23T05:52:11;100068.59;;;12.95;57.16
24336;BME280;33098;52.400;16.880;2023-04-23T05:54:38;100063.77;;;13.01;57.10
24336;BME280;33098;52.400;16.880;2023-04-23T05:57:04;100058.89;;;13.11;57.11
24336;BME280;33098;52.400;16.880;2023-04-23T05:59:31;100057.54;;;13.17;57.07
24336;BME280;33098;52.400;16.880;2023-04-23T06:01:58;100053.61;;;13.27;57.02
24336;BME280;33098;52.400;16.880;2023-04-23T06:04:25;100053.89;;;13.50;57.12
24336;BME280;33098;52.400;16.880;2023-04-23T06:06:53;100050.67;;;13.79;56.87
24336;BME280;33098;52.400;16.880;2023-04-23T06:09:20;100048.30;;;13.93;56.57
24336;BME280;33098;52.400;16.880;2023-04-23T06:11:47;100050.77;;;13.97;56.44
24336;BME280;33098;52.400;16.880;2023-04-23T06:14:15;100047.84;;;14.01;56.37
24336;BME280;33098;52.400;16.880;2023-04-23T06:16:42;100047.74;;;14.18;56.49
24336;BME280;33098;52.400;16.880;2023-04-23T06:19:09;100051.42;;;14.39;56.19
24336;BME280;33098;52.400;16.880;2023-04-23T06:21:37;100052.60;;;14.46;56.18
24336;BME280;33098;52.400;16.880;2023-04-23T06:24:05;100056.66;;;14.48;55.78
24336;BME280;33098;52.400;16.880;2023-04-23T06:26:33;100055.40;;;14.50;55.70
24336;BME280;33098;52.400;16.880;2023-04-23T06:29:00;100053.27;;;14.57;55.62
24336;BME280;33098;52.400;16.880;2023-04-23T06:31:54;100054.08;;;14.62;55.40
24336;BME280;33098;52.400;16.880;2023-04-23T06:34:22;100052.89;;;14.61;55.54
24336;BME280;33098;52.400;16.880;2023-04-23T06:36:50;100048.54;;;14.66;55.59
24336;BME280;33098;52.400;16.880;2023-04-23T06:39:18;100046.96;;;14.76;55.52
24336;BME280;33098;52.400;16.880;2023-04-23T06:41:44;100044.95;;;14.81;55.58
24336;BME280;33098;52.400;16.880;2023-04-23T06:44:19;100045.08;;;14.92;55.52
24336;BME280;33098;52.400;16.880;2023-04-23T06:46:52;100042.23;;;15.04;55.48
24336;BME280;33098;52.400;16.880;2023-04-23T06:49:19;100041.55;;;15.16;55.38
24336;BME280;33098;52.400;16.880;2023-04-23T06:51:46;100041.98;;;15.24;55.22
24336;BME280;33098;52.400;16.880;2023-04-23T06:54:13;100036.39;;;15.31;55.05
24336;BME280;33098;52.400;16.880;2023-04-23T06:56:40;100033.39;;;15.36;54.93
24336;BME280;33098;52.400;16.880;2023-04-23T06:59:07;100028.63;;;15.44;54.92
24336;BME280;33098;52.400;16.880;2023-04-23T07:01:35;100030.09;;;15.54;54.80
24336;BME280;33098;52.400;16.880;2023-04-23T07:04:02;100025.53;;;15.65;54.68
24336;BME280;33098;52.400;16.880;2023-04-23T07:06:29;100032.28;;;15.74;54.55
24336;BME280;33098;52.400;16.880;2023-04-23T07:08:56;100033.20;;;15.84;54.44
24336;BME280;33098;52.400;16.880;2023-04-23T07:11:23;100033.52;;;15.94;54.44
24336;BME280;33098;52.400;16.880;2023-04-23T07:13:50;100026.98;;;16.05;54.35
24336;BME280;33098;52.400;16.880;2023-04-23T07:16:17;100026.20;;;16.14;54.05
24336;BME280;33098;52.400;16.880;2023-04-23T07:18:43;100024.38;;;16.21;53.88
24336;BME280;33098;52.400;16.880;2023-04-23T07:21:11;100022.56;;;16.30;53.75
24336;BME280;33098;52.400;16.880;2023-04-23T07:23:38;100020.54;;;16.37;53.57
24336;BME280;33098;52.400;16.880;2023-04-23T07:26:08;100018.77;;;16.44;53.51
24336;BME280;33098;52.400;16.880;2023-04-23T07:28:37;100019.10;;;16.55;53.44
24336;BME280;33098;52.400;16.880;2023-04-23T07:31:06;100016.81;;;16.64;53.22
24336;BME280;33098;52.400;16.880;2023-04-23T07:33:33;100013.94;;;16.74;52.94
24336;BME280;33098;52.400;16.880;2023-04-23T07:36:01;100014.36;;;16.81;52.66
24336;BME280;33098;52.400;16.880;2023-04-23T07:38:30;100011.11;;;16.86;52.29
24336;BME280;33098;52.400;16.880;2023-04-23T07:40:57;100008.64;;;16.94;52.33
24336;BME280;33098;52.400;16.880;2023-04-23T07:43:26;100007.45;;;17.03;52.13
24336;BME280;33098;52.400;16.880;2023-04-23T07:45:53;100006.52;;;17.13;52.07
24336;BME280;33098;52.400;16.880;2023-04-23T07:48:22;99999.95;;;17.24;52.05
24336;BME280;33098;52.400;16.880;2023-04-23T07:50:50;99997.54;;;17.34;52.00
24336;BME280;33098;52.400;16.880;2023-04-23T07:53:18;99998.48;;;17.44;51.80
24336;BME280;33098;52.400;16.880;2023-04-23T07:55:46;99997.60;;;17.54;51.57
24336;BME280;33098;52.400;16.880;2023-04-23T07:58:13;99997.25;;;17.60;50.89
24336;BME280;33098;52.400;16.880;2023-04-23T08:00:40;99991.65;;;17.68;51.08
24336;BME280;33098;52.400;16.880;2023-04-23T08:03:08;99990.08;;;17.78;50.90
24336;BME280;33098;52.400;16.880;2023-04-23T08:05:35;99986.92;;;17.86;50.59
24336;BME280;33098;52.400;16.880;2023-04-23T08:08:04;99982.16;;;17.93;50.49
24336;BME280;33098;52.400;16.880;2023-04-23T08:10:31;99984.32;;;18.01;50.53
24336;BME280;33098;52.400;16.880;2023-04-23T08:12:59;99980.95;;;18.09;50.25
24336;BME280;33098;52.400;16.880;2023-04-23T08:15:25;99982.49;;;18.16;49.92
24336;BME280;33098;52.400;16.880;2023-04-23T08:17:53;99981.71;;;18.21;49.93
24336;BME280;33098;52.400;16.880;2023-04-23T08:20:21;99982.92;;;18.29;49.97
24336;BME280;33098;52.400;16.880;2023-04-23T08:22:50;99983.48;;;18.38;49.74
24336;BME280;33098;52.400;16.880;2023-04-23T08:25:19;99986.16;;;18.46;49.34
24336;BME280;33098;52.400;16.880;2023-04-23T08:27:46;99978.82;;;18.52;49.18
24336;BME280;33098;52.400;16.880;2023-04-23T08:30:15;99971.93;;;18.58;48.86
24336;BME280;33098;52.400;16.880;2023-04-23T08:32:42;99969.32;;;18.65;48.74
24336;BME280;33098;52.400;16.880;2023-04-23T08:35:09;99965.71;;;18.74;48.93
24336;BME280;33098;52.400;16.880;2023-04-23T08:37:35;99961.98;;;18.83;48.68
24336;BME280;33098;52.400;16.880;2023-04-23T08:40:06;99957.82;;;18.92;48.77
24336;BME280;33098;52.400;16.880;2023-04-23T08:45:10;99949.52;;;19.09;48.56
24336;BME280;33098;52.400;16.880;2023-04-23T08:47:42;99951.90;;;19.17;48.54
24336;BME280;33098;52.400;16.880;2023-04-23T08:50:20;99952.42;;;19.26;48.45
24336;BME280;33098;52.400;16.880;2023-04-23T08:52:56;99946.65;;;19.34;48.32
24336;BME280;33098;52.400;16.880;2023-04-23T08:55:24;99942.86;;;19.44;48.30
24336;BME280;33098;52.400;16.880;2023-04-23T08:57:51;99937.86;;;19.54;48.33
24336;BME280;33098;52.400;16.880;2023-04-23T09:00:20;99942.80;;;19.62;47.95
24336;BME280;33098;52.400;16.880;2023-04-23T09:02:48;99938.23;;;19.71;47.76
24336;BME280;33098;52.400;16.880;2023-04-23T09:05:15;99936.19;;;19.79;47.69
24336;BME280;33098;52.400;16.880;2023-04-23T09:07:42;99932.48;;;19.84;47.53
24336;BME280;33098;52.400;16.880;2023-04-23T09:10:10;99930.96;;;19.92;47.33
24336;BME280;33098;52.400;16.880;2023-04-23T09:12:40;99929.68;;;20.01;47.33
24336;BME280;33098;52.400;16.880;2023-04-23T09:15:08;99922.33;;;20.09;47.04
24336;BME280;33098;52.400;16.880;2023-04-23T09:17:41;99919.21;;;20.15;46.90
24336;BME280;33098;52.400;16.880;2023-04-23T09:20:09;99924.35;;;20.24;46.83
24336;BME280;33098;52.400;16.880;2023-04-23T09:22:41;99913.52;;;20.31;46.30
24336;BME280;33098;52.400;16.880;2023-04-23T09:25:10;99917.06;;;20.35;46.45
24336;BME280;33098;52.400;16.880;2023-04-23T09:27:38;99913.70;;;20.40;46.32
24336;BME280;33098;52.400;16.880;2023-04-23T09:30:06;99914.59;;;20.53;46.56
24336;BME280;33098;52.400;16.880;2023-04-23T09:32:39;99912.08;;;20.64;46.31
24336;BME280;33098;52.400;16.880;2023-04-23T09:35:09;99903.80;;;20.75;46.13
24336;BME280;33098;52.400;16.880;2023-04-23T09:37:37;99903.23;;;20.84;46.08
24336;BME280;33098;52.400;16.880;2023-04-23T09:40:08;99905.38;;;20.93;46.04
24336;BME280;33098;52.400;16.880;2023-04-23T09:42:38;99902.98;;;21.07;46.15
24336;BME280;33098;52.400;16.880;2023-04-23T09:45:10;99900.59;;;21.17;45.84
24336;BME280;33098;52.400;16.880;2023-04-23T09:47:52;99897.83;;;21.30;45.45
24336;BME280;33098;52.400;16.880;2023-04-23T09:50:34;99890.64;;;21.41;45.24
24336;BME280;33098;52.400;16.880;2023-04-23T09:53:05;99885.26;;;21.53;45.10
24336;BME280;33098;52.400;16.880;2023-04-23T09:55:35;99875.78;;;21.65;44.64
24336;BME280;33098;52.400;16.880;2023-04-23T09:58:12;99874.46;;;21.78;44.17
24336;BME280;33098;52.400;16.880;2023-04-23T10:00:41;99876.41;;;21.95;44.01
24336;BME280;33098;52.400;16.880;2023-04-23T10:03:08;99881.10;;;22.15;43.43
24336;BME280;33098;52.400;16.880;2023-04-23T10:05:40;99873.44;;;22.28;43.21
24336;BME280;33098;52.400;16.880;2023-04-23T10:08:07;99872.17;;;22.46;43.40
24336;BME280;33098;52.400;16.880;2023-04-23T10:10:35;99874.46;;;22.63;42.85
24336;BME280;33098;52.400;16.880;2023-04-23T10:13:02;99873.23;;;22.76;42.85
24336;BME280;33098;52.400;16.880;2023-04-23T10:15:29;99874.53;;;22.86;42.43
24336;BME280;33098;52.400;16.880;2023-04-23T10:17:56;99879.10;;;22.92;41.72
24336;BME280;33098;52.400;16.880;2023-04-23T10:20:24;99877.05;;;22.91;41.33
24336;BME280;33098;52.400;16.880;2023-04-23T10:22:53;99877.52;;;22.98;41.65
24336;BME280;33098;52.400;16.880;2023-04-23T10:25:22;99872.50;;;22.99;41.48
24336;BME280;33098;52.400;16.880;2023-04-23T10:27:51;99871.66;;;23.08;41.73
24336;BME280;33098;52.400;16.880;2023-04-23T10:30:19;99882.52;;;23.12;39.45
24336;BME280;33098;52.400;16.880;2023-04-23T10:32:47;99872.20;;;23.11;39.66
24336;BME280;33098;52.400;16.880;2023-04-23T10:35:14;99876.44;;;23.19;39.27
24336;BME280;33098;52.400;16.880;2023-04-23T10:37:43;99876.09;;;23.25;39.66
24336;BME280;33098;52.400;16.880;2023-04-23T10:40:12;99881.95;;;23.20;39.30
24336;BME280;33098;52.400;16.880;2023-04-23T10:42:41;99881.29;;;23.14;39.43
24336;BME280;33098;52.400;16.880;2023-04-23T10:45:16;99879.23;;;23.08;39.81
24336;BME280;33098;52.400;16.880;2023-04-23T10:47:44;99871.12;;;23.00;39.73
24336;BME280;33098;52.400;16.880;2023-04-23T10:50:25;99871.58;;;23.02;40.20
24336;BME280;33098;52.400;16.880;2023-04-23T10:52:53;99870.73;;;23.03;40.00
24336;BME280;33098;52.400;16.880;2023-04-23T10:55:22;99869.55;;;23.10;40.18
24336;BME280;33098;52.400;16.880;2023-04-23T10:58:09;99870.42;;;23.17;40.46
24336;BME280;33098;52.400;16.880;2023-04-23T11:06:02;99871.53;;;23.49;40.14
24336;BME280;33098;52.400;16.880;2023-04-23T11:08:30;99881.85;;;23.65;39.29
24336;BME280;33098;52.400;16.880;2023-04-23T11:11:02;99877.39;;;23.70;39.34
24336;BME280;33098;52.400;16.880;2023-04-23T11:13:32;99876.77;;;23.83;39.55
24336;BME280;33098;52.400;16.880;2023-04-23T11:16:15;99880.13;;;23.95;39.34
24336;BME280;33098;52.400;16.880;2023-04-23T11:19:02;99878.74;;;24.00;38.69
24336;BME280;33098;52.400;16.880;2023-04-23T11:24:21;99876.73;;;24.09;38.62
24336;BME280;33098;52.400;16.880;2023-04-23T11:26:52;99875.94;;;24.04;38.07
24336;BME280;33098;52.400;16.880;2023-04-23T11:29:23;99878.05;;;23.93;38.35
24336;BME280;33098;52.400;16.880;2023-04-23T11:31:52;99872.06;;;23.85;38.51
24336;BME280;33098;52.400;16.880;2023-04-23T11:34:19;99869.59;;;23.86;38.80
24336;BME280;33098;52.400;16.880;2023-04-23T11:36:51;99867.20;;;23.81;38.79
24336;BME280;33098;52.400;16.880;2023-04-23T11:39:22;99869.21;;;23.88;38.98
24336;BME280;33098;52.400;16.880;2023-04-23T11:41:53;99878.89;;;23.91;38.97
24336;BME280;33098;52.400;16.880;2023-04-23T11:44:20;99875.57;;;23.81;38.68
24336;BME280;33098;52.400;16.880;2023-04-23T11:46:47;99872.14;;;23.61;38.78
24336;BME280;33098;52.400;16.880;2023-04-23T11:49:16;99874.66;;;23.47;39.53
24336;BME280;33098;52.400;16.880;2023-04-23T11:51:44;99873.05;;;23.34;39.71
24336;BME280;33098;52.400;16.880;2023-04-23T11:54:12;99876.73;;;23.18;40.05
24336;BME280;33098;52.400;16.880;2023-04-23T11:56:46;99874.57;;;23.04;40.52
24336;BME280;33098;52.400;16.880;2023-04-23T11:59:13;99875.00;;;22.99;40.70
24336;BME280;33098;52.400;16.880;2023-04-23T12:04:21;99871.80;;;22.96;40.95
24336;BME280;33098;52.400;16.880;2023-04-23T12:06:49;99870.04;;;22.92;41.36
24336;BME280;33098;52.400;16.880;2023-04-23T12:09:19;99877.71;;;22.84;41.40
24336;BME280;33098;52.400;16.880;2023-04-23T12:11:46;99878.40;;;22.70;41.71
24336;BME280;33098;52.400;16.880;2023-04-23T12:14:17;99883.65;;;22.55;41.99
24336;BME280;33098;52.400;16.880;2023-04-23T12:16:47;99885.27;;;22.33;42.50
24336;BME280;33098;52.400;16.880;2023-04-23T12:21:50;99888.95;;;22.05;42.94
24336;BME280;33098;52.400;16.880;2023-04-23T12:24:25;99896.21;;;21.96;43.67
24336;BME280;33098;52.400;16.880;2023-04-23T12:26:53;99896.17;;;21.86;44.25
24336;BME280;33098;52.400;16.880;2023-04-23T12:29:21;99897.34;;;21.77;44.73
24336;BME280;33098;52.400;16.880;2023-04-23T12:31:50;99896.63;;;21.65;44.87
24336;BME280;33098;52.400;16.880;2023-04-23T12:34:19;99891.80;;;21.57;44.96
24336;BME280;33098;52.400;16.880;2023-04-23T12:36:52;99894.86;;;21.61;45.08
24336;BME280;33098;52.400;16.880;2023-04-23T12:39:35;99895.11;;;21.59;45.23
24336;BME280;33098;52.400;16.880;2023-04-23T12:42:04;99896.28;;;21.46;45.28
24336;BME280;33098;52.400;16.880;2023-04-23T12:44:36;99896.05;;;21.43;45.28
24336;BME280;33098;52.400;16.880;2023-04-23T12:47:04;99901.15;;;21.42;45.46
24336;BME280;33098;52.400;16.880;2023-04-23T12:49:34;99899.82;;;21.44;45.57
24336;BME280;33098;52.400;16.880;2023-04-23T12:52:03;99902.81;;;21.40;45.91
24336;BME280;33098;52.400;16.880;2023-04-23T12:54:36;99903.55;;;21.33;46.04
24336;BME280;33098;52.400;16.880;2023-04-23T12:57:05;99901.38;;;21.36;46.12
24336;BME280;33098;52.400;16.880;2023-04-23T12:59:32;99894.86;;;21.43;46.22
24336;BME280;33098;52.400;16.880;2023-04-23T13:01:59;99897.58;;;21.48;46.02
24336;BME280;33098;52.400;16.880;2023-04-23T13:04:34;99892.90;;;21.55;46.11
24336;BME280;33098;52.400;16.880;2023-04-23T13:07:01;99898.59;;;21.69;46.13